aviador You're here:

KLFT Decoded Metar

LAFAYETTE in LA, USA
Report Time2017-09-23 18:57:00
UTC Time2017-09-23 20:07:45
Flight Rules Old
WindVRB at 04 kt
Visibility9999 m
Phenomena:N/A
Clouds:Scattered 043 Hf
Broken 055 Hf
Expected CloudBase > 4,400 ft AGL from Temp-Dew spread
Ceiling5,500 ft
Temp32°C (ISA +17)
Dew Point21°C (52% RH)
Heat Index34.9°C
QNH1014 hPa
Density Alt2,280 ft
Elevation36 ft
Report Wrong Elevation
Raw Report
KLFT 231857Z VRB04KT 10SM SCT043 BKN055 32/21 A2993=

Extra information for KLFT:More info

Metar Taf Metar & Taf Last 4 Metars F.Rules Stats Wind Profile Meteogram Temp Stats Airport Information Weather charts Add Link Nearby VenuesMetar ALERT Operation Metar Decoded Social comments

AIRNAV info for KLFT